Map

Track Data

SID SEASON NUMBER BASIN SUBBASIN NAME ISO_TIME NATURE LAT LON WMO_WIND WMO_PRES WMO_AGENCY TRACK_TYPE DIST2LAND LANDFALL IFLAG USA_AGENCY USA_ATCF_ID USA_LAT USA_LON USA_RECORD USA_STATUS USA_WIND USA_PRES USA_SSHS USA_R34_NE USA_R34_SE USA_R34_SW USA_R34_NW USA_R50_NE USA_R50_SE USA_R50_SW USA_R50_NW USA_R64_NE USA_R64_SE USA_R64_SW USA_R64_NW USA_POCI USA_ROCI USA_RMW USA_EYE TOKYO_LAT TOKYO_LON TOKYO_GRADE TOKYO_WIND TOKYO_PRES TOKYO_R50_DIR TOKYO_R50_LONG TOKYO_R50_SHORT TOKYO_R30_DIR TOKYO_R30_LONG TOKYO_R30_SHORT TOKYO_LAND CMA_LAT CMA_LON CMA_CAT CMA_WIND CMA_PRES HKO_LAT HKO_LON HKO_CAT HKO_WIND HKO_PRES NEWDELHI_LAT NEWDELHI_LON NEWDELHI_GRADE NEWDELHI_WIND NEWDELHI_PRES NEWDELHI_CI NEWDELHI_DP NEWDELHI_POCI REUNION_LAT REUNION_LON REUNION_TYPE REUNION_WIND REUNION_PRES REUNION_TNUM REUNION_CI REUNION_RMW REUNION_R34_NE REUNION_R34_SE REUNION_R34_SW REUNION_R34_NW REUNION_R50_NE REUNION_R50_SE REUNION_R50_SW REUNION_R50_NW REUNION_R64_NE REUNION_R64_SE REUNION_R64_SW REUNION_R64_NW BOM_LAT BOM_LON BOM_TYPE BOM_WIND BOM_PRES BOM_TNUM BOM_CI BOM_RMW BOM_R34_NE BOM_R34_SE BOM_R34_SW BOM_R34_NW BOM_R50_NE BOM_R50_SE BOM_R50_SW BOM_R50_NW BOM_R64_NE BOM_R64_SE BOM_R64_SW BOM_R64_NW BOM_ROCI BOM_POCI BOM_EYE BOM_POS_METHOD BOM_PRES_METHOD NADI_LAT NADI_LON NADI_CAT NADI_WIND NADI_PRES WELLINGTON_LAT WELLINGTON_LON WELLINGTON_WIND WELLINGTON_PRES DS824_LAT DS824_LON DS824_STAGE DS824_WIND DS824_PRES TD9636_LAT TD9636_LON TD9636_STAGE TD9636_WIND TD9636_PRES TD9635_LAT TD9635_LON TD9635_WIND TD9635_PRES TD9635_ROCI NEUMANN_LAT NEUMANN_LON NEUMANN_CLASS NEUMANN_WIND NEUMANN_PRES MLC_LAT MLC_LON MLC_CLASS MLC_WIND MLC_PRES USA_GUST BOM_GUST BOM_GUST_PER REUNION_GUST REUNION_GUST_PER USA_SEAHGT USA_SEARAD_NE USA_SEARAD_SE USA_SEARAD_SW USA_SEARAD_NW STORM_SPEED STORM_DIR
1932032S12045 1932 9 SI MM NOT_NAMED 1932-02-01 06:00:00 NR -12.0000 44.6000 reunion spur-merge 405 405 _____O________ -1 -12.0000 44.6000 99 9.90000 1 0
1932032S12045 1932 9 SI MM NOT_NAMED 1932-02-01 09:00:00 NR -12.0259 44.6051 spur-merge 405 400 _____P________ -1 -12.1252 44.7121 99 1 0
1932032S12045 1932 9 SI MM NOT_NAMED 1932-02-01 12:00:00 NR -12.0613 44.6204 spur-merge 400 390 _____P________ -1 -12.2503 44.8243 99 1 149
1932032S12045 1932 9 SI MM NOT_NAMED 1932-02-01 15:00:00 NR -12.1155 44.6561 spur-merge 390 385 _____P________ -1 -12.3753 44.9367 99 2 145
1932032S12045 1932 9 SI MM NOT_NAMED 1932-02-01 18:00:00 NR -12.1981 44.7224 spur-merge 385 370 _____P________ -1 -12.5004 45.0491 99 3 141
1932032S12045 1932 9 SI MM NOT_NAMED 1932-02-01 21:00:00 NR -12.3185 44.8295 spur-merge 370 341 _____P________ -1 -12.6254 45.1617 99 4 138
1932032S12045 1932 9 SI MM NOT_NAMED 1932-02-02 00:00:00 NR -12.4860 44.9878 spur-merge 341 313 _____P________ -1 -12.7503 45.2744 99 5 137
1932032S12045 1932 9 SI MM NOT_NAMED 1932-02-02 03:00:00 NR -12.7101 45.2078 spur-merge 313 271 _____P________ -1 -12.8752 45.3871 99 7 136
1932032S12045 1932 9 SI MM NOT_NAMED 1932-02-02 06:00:00 NR -13.0000 45.5000 reunion spur-merge 271 231 _____O________ -1 -13.0000 45.5000 99 9.90000 9 135
1932032S12045 1932 9 SI MM NOT_NAMED 1932-02-02 09:00:00 NR -13.3617 45.8717 spur-merge 218 163 _____P________ -1 -13.5164 46.0405 99 11 135
1932032S12045 1932 9 SI MM NOT_NAMED 1932-02-02 12:00:00 NR -13.7877 46.3158 spur-merge 163 93 _____P________ -1 -14.0321 46.5839 99 13 134
1932032S12045 1932 9 SI MM NOT_NAMED 1932-02-02 15:00:00 NR -14.2674 46.8216 spur-merge 85 10 _____P________ -1 -14.5470 47.1301 99 14 134
1932032S12045 1932 9 SI MM NOT_NAMED 1932-02-02 18:00:00 NR -14.7901 47.3785 spur-merge 0 0 _____P________ -1 -15.0607 47.6789 99 16 134
1932032S12045 1932 9 SI MM NOT_NAMED 1932-02-02 21:00:00 NR -15.3451 47.9757 spur-merge 0 0 _____P________ -1 -15.5731 48.2305 99 16 134
1932032S12045 1932 9 SI MM NOT_NAMED 1932-02-03 00:00:00 NR -15.9220 48.6023 spur-merge 0 0 _____P________ -1 -16.0839 48.7845 99 17 134
1932032S12045 1932 9 SI MM NOT_NAMED 1932-02-03 03:00:00 NR -16.5103 49.2475 spur-merge 0 0 _____P________ -1 -16.5930 49.3411 99 17 133
1932032S12045 1932 9 SI MM NOT_NAMED 1932-02-03 06:00:00 NR -17.1000 49.9000 reunion spur-merge 35 35 _____O________ -1 -17.1000 49.9000 99 9.90000 16 133
1932032S12045 1932 9 SI MM NOT_NAMED 1932-02-03 09:00:00 NR -17.6230 50.4857 spur-merge 106 105 ______________ -1 99 15 133
1932032S12045 1932 9 SI MM NOT_NAMED 1932-02-03 12:00:00 NR -18.1521 51.0844 spur-merge 178 178 ______________ -1 99 16 133
1932032S12045 1932 9 SI MM NOT_NAMED 1932-02-03 15:00:00 NR -18.6900 51.6984 spur-merge 248 248 ______________ -1 99 16 133
1932032S12045 1932 9 SI MM NOT_NAMED 1932-02-03 18:00:00 NR -19.2392 52.3306 spur-merge 325 ______________ -1 99 16 133

About IBTrACS Database

This database is a web-friendly format of International Best Track Archive for Climate Stewardship (IBTrACS), a global best track data archive curated by NOAA dating back to 1842.

Updated: 2021-10-08